sensor_id;sensor_type;location;lat;lon;timestamp;pressure;altitude;pressure_sealevel;temperature;humidity
20983;BME280;10650;51.528;6.748;2023-03-04T00:00:56;102357.13;;;7.03;63.61
20983;BME280;10650;51.528;6.748;2023-03-04T00:03:24;102359.84;;;7.04;63.62
20983;BME280;10650;51.528;6.748;2023-03-04T00:05:52;102359.00;;;7.05;63.49
20983;BME280;10650;51.528;6.748;2023-03-04T00:08:21;102354.59;;;7.07;63.79
20983;BME280;10650;51.528;6.748;2023-03-04T00:10:49;102363.38;;;7.05;63.96
20983;BME280;10650;51.528;6.748;2023-03-04T00:13:17;102369.47;;;7.01;63.80
20983;BME280;10650;51.528;6.748;2023-03-04T00:15:47;102358.81;;;6.99;63.92
20983;BME280;10650;51.528;6.748;2023-03-04T00:18:17;102361.56;;;7.02;63.96
20983;BME280;10650;51.528;6.748;2023-03-04T00:20:46;102364.31;;;7.05;63.70
20983;BME280;10650;51.528;6.748;2023-03-04T00:23:15;102363.34;;;7.03;63.97
20983;BME280;10650;51.528;6.748;2023-03-04T00:25:43;102361.59;;;7.04;63.63
20983;BME280;10650;51.528;6.748;2023-03-04T00:28:11;102359.00;;;7.05;63.81
20983;BME280;10650;51.528;6.748;2023-03-04T00:30:40;102362.59;;;7.07;64.07
20983;BME280;10650;51.528;6.748;2023-03-04T00:33:08;102359.88;;;7.06;63.83
20983;BME280;10650;51.528;6.748;2023-03-04T00:35:37;102365.19;;;7.06;64.23
20983;BME280;10650;51.528;6.748;2023-03-04T00:38:05;102362.50;;;7.04;64.16
20983;BME280;10650;51.528;6.748;2023-03-04T00:40:33;102364.13;;;6.99;64.24
20983;BME280;10650;51.528;6.748;2023-03-04T00:43:02;102364.00;;;6.96;64.48
20983;BME280;10650;51.528;6.748;2023-03-04T00:45:30;102359.56;;;6.95;65.09
20983;BME280;10650;51.528;6.748;2023-03-04T00:47:58;102354.78;;;6.85;64.95
20983;BME280;10650;51.528;6.748;2023-03-04T00:50:26;102347.69;;;6.84;65.05
20983;BME280;10650;51.528;6.748;2023-03-04T00:52:56;102341.63;;;6.88;65.11
20983;BME280;10650;51.528;6.748;2023-03-04T00:55:24;102346.94;;;6.88;65.05
20983;BME280;10650;51.528;6.748;2023-03-04T00:57:52;102343.25;;;6.84;64.67
20983;BME280;10650;51.528;6.748;2023-03-04T01:00:21;102340.75;;;6.89;64.78
20983;BME280;10650;51.528;6.748;2023-03-04T01:02:49;102336.41;;;6.91;64.87
20983;BME280;10650;51.528;6.748;2023-03-04T01:05:17;102339.91;;;6.90;64.92
20983;BME280;10650;51.528;6.748;2023-03-04T01:07:45;102347.91;;;6.91;65.15
20983;BME280;10650;51.528;6.748;2023-03-04T01:10:15;102340.03;;;6.95;65.03
20983;BME280;10650;51.528;6.748;2023-03-04T01:12:43;102340.09;;;6.96;65.19
20983;BME280;10650;51.528;6.748;2023-03-04T01:15:12;102341.00;;;6.97;64.88
20983;BME280;10650;51.528;6.748;2023-03-04T01:17:40;102340.97;;;6.95;65.06
20983;BME280;10650;51.528;6.748;2023-03-04T01:20:10;102338.31;;;6.95;65.15
20983;BME280;10650;51.528;6.748;2023-03-04T01:22:38;102343.72;;;6.98;65.15
20983;BME280;10650;51.528;6.748;2023-03-04T01:25:07;102344.72;;;7.03;64.89
20983;BME280;10650;51.528;6.748;2023-03-04T01:27:37;102337.69;;;7.04;65.27
20983;BME280;10650;51.528;6.748;2023-03-04T01:30:06;102336.75;;;7.03;65.15
20983;BME280;10650;51.528;6.748;2023-03-04T01:32:34;102336.81;;;7.05;65.16
20983;BME280;10650;51.528;6.748;2023-03-04T01:35:02;102329.56;;;6.99;65.28
20983;BME280;10650;51.528;6.748;2023-03-04T01:37:31;102334.88;;;6.99;65.18
20983;BME280;10650;51.528;6.748;2023-03-04T01:39:58;102328.50;;;6.94;65.05
20983;BME280;10650;51.528;6.748;2023-03-04T01:42:30;102327.59;;;6.92;64.86
20983;BME280;10650;51.528;6.748;2023-03-04T01:45:02;102327.50;;;6.90;64.79
20983;BME280;10650;51.528;6.748;2023-03-04T01:47:32;102319.34;;;6.84;64.75
20983;BME280;10650;51.528;6.748;2023-03-04T01:50:04;102329.75;;;6.77;64.75
20983;BME280;10650;51.528;6.748;2023-03-04T01:52:33;102322.56;;;6.74;64.67
20983;BME280;10650;51.528;6.748;2023-03-04T01:55:05;102325.28;;;6.75;64.68
20983;BME280;10650;51.528;6.748;2023-03-04T01:57:34;102316.28;;;6.72;64.52
20983;BME280;10650;51.528;6.748;2023-03-04T02:00:26;102327.03;;;6.75;64.79
20983;BME280;10650;51.528;6.748;2023-03-04T02:02:56;102319.97;;;6.75;64.62
20983;BME280;10650;51.528;6.748;2023-03-04T02:05:26;102321.78;;;6.77;64.79
20983;BME280;10650;51.528;6.748;2023-03-04T02:07:57;102322.47;;;6.71;64.54
20983;BME280;10650;51.528;6.748;2023-03-04T02:10:27;102315.41;;;6.71;64.73
20983;BME280;10650;51.528;6.748;2023-03-04T02:12:55;102314.59;;;6.74;64.38
20983;BME280;10650;51.528;6.748;2023-03-04T02:15:25;102310.03;;;6.70;64.51
20983;BME280;10650;51.528;6.748;2023-03-04T02:17:53;102307.28;;;6.67;64.55
20983;BME280;10650;51.528;6.748;2023-03-04T02:20:30;102306.53;;;6.71;64.60
20983;BME280;10650;51.528;6.748;2023-03-04T02:23:06;102303.13;;;6.75;64.66
20983;BME280;10650;51.528;6.748;2023-03-04T02:25:40;102310.22;;;6.76;64.71
20983;BME280;10650;51.528;6.748;2023-03-04T02:28:11;102304.97;;;6.78;64.57
20983;BME280;10650;51.528;6.748;2023-03-04T02:30:39;102304.88;;;6.74;64.93
20983;BME280;10650;51.528;6.748;2023-03-04T02:33:13;102305.47;;;6.66;64.92
20983;BME280;10650;51.528;6.748;2023-03-04T02:35:42;102302.97;;;6.70;65.05
20983;BME280;10650;51.528;6.748;2023-03-04T02:38:11;102305.53;;;6.67;64.60
20983;BME280;10650;51.528;6.748;2023-03-04T02:40:42;102300.06;;;6.63;64.59
20983;BME280;10650;51.528;6.748;2023-03-04T02:43:14;102294.56;;;6.56;64.46
20983;BME280;10650;51.528;6.748;2023-03-04T02:45:44;102290.19;;;6.58;64.70
20983;BME280;10650;51.528;6.748;2023-03-04T02:48:16;102287.31;;;6.51;64.81
20983;BME280;10650;51.528;6.748;2023-03-04T02:50:47;102289.91;;;6.49;65.13
20983;BME280;10650;51.528;6.748;2023-03-04T02:53:16;102284.75;;;6.54;65.05
20983;BME280;10650;51.528;6.748;2023-03-04T02:55:44;102284.09;;;6.61;64.82
20983;BME280;10650;51.528;6.748;2023-03-04T02:58:14;102278.06;;;6.67;65.03
20983;BME280;10650;51.528;6.748;2023-03-04T03:00:42;102279.97;;;6.71;64.67
20983;BME280;10650;51.528;6.748;2023-03-04T03:03:10;102279.72;;;6.63;64.67
20983;BME280;10650;51.528;6.748;2023-03-04T03:05:38;102276.97;;;6.60;64.70
20983;BME280;10650;51.528;6.748;2023-03-04T03:08:06;102277.97;;;6.64;65.08
20983;BME280;10650;51.528;6.748;2023-03-04T03:10:34;102279.75;;;6.65;64.98
20983;BME280;10650;51.528;6.748;2023-03-04T03:13:02;102271.97;;;6.69;65.27
20983;BME280;10650;51.528;6.748;2023-03-04T03:15:32;102266.75;;;6.72;64.98
20983;BME280;10650;51.528;6.748;2023-03-04T03:18:00;102276.34;;;6.69;65.22
20983;BME280;10650;51.528;6.748;2023-03-04T03:20:28;102268.38;;;6.69;64.92
20983;BME280;10650;51.528;6.748;2023-03-04T03:22:56;102264.09;;;6.72;64.56
20983;BME280;10650;51.528;6.748;2023-03-04T03:25:24;102264.00;;;6.69;64.67
20983;BME280;10650;51.528;6.748;2023-03-04T03:27:52;102266.59;;;6.68;64.70
20983;BME280;10650;51.528;6.748;2023-03-04T03:30:20;102262.06;;;6.64;64.88
20983;BME280;10650;51.528;6.748;2023-03-04T03:32:50;102263.72;;;6.62;65.02
20983;BME280;10650;51.528;6.748;2023-03-04T03:35:18;102252.44;;;6.69;65.02
20983;BME280;10650;51.528;6.748;2023-03-04T03:37:46;102256.88;;;6.68;65.04
20983;BME280;10650;51.528;6.748;2023-03-04T03:40:15;102255.06;;;6.67;65.03
20983;BME280;10650;51.528;6.748;2023-03-04T03:42:43;102263.03;;;6.67;65.43
20983;BME280;10650;51.528;6.748;2023-03-04T03:45:13;102269.31;;;6.69;65.32
20983;BME280;10650;51.528;6.748;2023-03-04T03:47:41;102260.38;;;6.67;65.60
20983;BME280;10650;51.528;6.748;2023-03-04T03:50:11;102264.94;;;6.71;65.55
20983;BME280;10650;51.528;6.748;2023-03-04T03:52:39;102257.94;;;6.73;65.43
20983;BME280;10650;51.528;6.748;2023-03-04T03:55:07;102257.53;;;6.61;65.31
20983;BME280;10650;51.528;6.748;2023-03-04T03:57:38;102255.72;;;6.60;65.46
20983;BME280;10650;51.528;6.748;2023-03-04T04:00:07;102251.16;;;6.56;65.47
20983;BME280;10650;51.528;6.748;2023-03-04T04:02:36;102253.78;;;6.54;65.94
20983;BME280;10650;51.528;6.748;2023-03-04T04:05:04;102249.47;;;6.58;65.64
20983;BME280;10650;51.528;6.748;2023-03-04T04:07:34;102249.53;;;6.60;65.77
20983;BME280;10650;51.528;6.748;2023-03-04T04:10:03;102252.31;;;6.64;65.90
20983;BME280;10650;51.528;6.748;2023-03-04T04:12:32;102252.50;;;6.70;65.68
20983;BME280;10650;51.528;6.748;2023-03-04T04:15:01;102242.00;;;6.73;65.88
20983;BME280;10650;51.528;6.748;2023-03-04T04:17:29;102245.41;;;6.69;65.79
20983;BME280;10650;51.528;6.748;2023-03-04T04:19:59;102246.28;;;6.70;66.04
20983;BME280;10650;51.528;6.748;2023-03-04T04:22:27;102243.69;;;6.71;66.18
20983;BME280;10650;51.528;6.748;2023-03-04T04:24:56;102249.00;;;6.71;66.17
20983;BME280;10650;51.528;6.748;2023-03-04T04:27:28;102243.69;;;6.71;66.42
20983;BME280;10650;51.528;6.748;2023-03-04T04:29:56;102245.34;;;6.68;66.30
20983;BME280;10650;51.528;6.748;2023-03-04T04:32:24;102255.97;;;6.68;66.77
20983;BME280;10650;51.528;6.748;2023-03-04T04:34:52;102250.50;;;6.63;66.65
20983;BME280;10650;51.528;6.748;2023-03-04T04:37:20;102252.84;;;6.52;67.11
20983;BME280;10650;51.528;6.748;2023-03-04T04:39:48;102251.81;;;6.49;67.23
20983;BME280;10650;51.528;6.748;2023-03-04T04:42:18;102254.66;;;6.53;67.25
20983;BME280;10650;51.528;6.748;2023-03-04T04:44:46;102253.69;;;6.51;67.29
20983;BME280;10650;51.528;6.748;2023-03-04T04:47:15;102251.91;;;6.52;67.28
20983;BME280;10650;51.528;6.748;2023-03-04T04:49:43;102251.91;;;6.52;67.33
20983;BME280;10650;51.528;6.748;2023-03-04T04:52:11;102255.69;;;6.58;67.46
20983;BME280;10650;51.528;6.748;2023-03-04T04:54:39;102250.13;;;6.51;67.56
20983;BME280;10650;51.528;6.748;2023-03-04T04:57:09;102259.25;;;6.59;67.57
20983;BME280;10650;51.528;6.748;2023-03-04T04:59:38;102259.44;;;6.65;67.29
20983;BME280;10650;51.528;6.748;2023-03-04T05:02:07;102258.25;;;6.55;67.04
20983;BME280;10650;51.528;6.748;2023-03-04T05:04:34;102265.06;;;6.47;67.00
20983;BME280;10650;51.528;6.748;2023-03-04T05:07:02;102262.41;;;6.47;66.98
20983;BME280;10650;51.528;6.748;2023-03-04T05:09:30;102251.88;;;6.50;67.03
20983;BME280;10650;51.528;6.748;2023-03-04T05:11:58;102262.53;;;6.52;66.90
20983;BME280;10650;51.528;6.748;2023-03-04T05:14:29;102259.78;;;6.49;66.87
20983;BME280;10650;51.528;6.748;2023-03-04T05:16:58;102261.66;;;6.51;66.50
20983;BME280;10650;51.528;6.748;2023-03-04T05:19:26;102260.66;;;6.48;66.62
20983;BME280;10650;51.528;6.748;2023-03-04T05:21:54;102263.16;;;6.43;66.94
20983;BME280;10650;51.528;6.748;2023-03-04T05:24:22;102272.13;;;6.47;67.01
20983;BME280;10650;51.528;6.748;2023-03-04T05:26:50;102266.16;;;6.54;67.02
20983;BME280;10650;51.528;6.748;2023-03-04T05:29:19;102269.88;;;6.59;66.89
20983;BME280;10650;51.528;6.748;2023-03-04T05:31:47;102261.91;;;6.59;66.66
20983;BME280;10650;51.528;6.748;2023-03-04T05:34:16;102264.44;;;6.56;67.04
20983;BME280;10650;51.528;6.748;2023-03-04T05:36:45;102257.44;;;6.58;66.76
20983;BME280;10650;51.528;6.748;2023-03-04T05:39:12;102250.41;;;6.60;66.94
20983;BME280;10650;51.528;6.748;2023-03-04T05:41:42;102252.00;;;6.53;66.66
20983;BME280;10650;51.528;6.748;2023-03-04T05:44:10;102253.72;;;6.53;66.58
20983;BME280;10650;51.528;6.748;2023-03-04T05:46:38;102257.41;;;6.56;66.68
20983;BME280;10650;51.528;6.748;2023-03-04T05:49:06;102256.47;;;6.56;66.26
20983;BME280;10650;51.528;6.748;2023-03-04T05:51:36;102258.34;;;6.58;66.70
20983;BME280;10650;51.528;6.748;2023-03-04T05:54:04;102256.28;;;6.50;66.31
20983;BME280;10650;51.528;6.748;2023-03-04T05:56:32;102252.84;;;6.52;66.41
20983;BME280;10650;51.528;6.748;2023-03-04T05:59:00;102258.25;;;6.55;66.46
20983;BME280;10650;51.528;6.748;2023-03-04T06:01:28;102259.84;;;6.50;66.68
20983;BME280;10650;51.528;6.748;2023-03-04T06:03:56;102260.84;;;6.54;66.24
20983;BME280;10650;51.528;6.748;2023-03-04T06:06:25;102267.13;;;6.57;66.20
20983;BME280;10650;51.528;6.748;2023-03-04T06:08:54;102265.47;;;6.60;65.94
20983;BME280;10650;51.528;6.748;2023-03-04T06:11:23;102264.56;;;6.59;65.96
20983;BME280;10650;51.528;6.748;2023-03-04T06:13:51;102263.59;;;6.57;65.99
20983;BME280;10650;51.528;6.748;2023-03-04T06:16:25;102268.59;;;6.46;66.03
20983;BME280;10650;51.528;6.748;2023-03-04T06:18:57;102266.72;;;6.44;66.38
20983;BME280;10650;51.528;6.748;2023-03-04T06:21:25;102267.44;;;6.38;66.70
20983;BME280;10650;51.528;6.748;2023-03-04T06:23:54;102275.47;;;6.41;67.17
20983;BME280;10650;51.528;6.748;2023-03-04T06:26:22;102271.16;;;6.45;67.28
20983;BME280;10650;51.528;6.748;2023-03-04T06:28:50;102276.69;;;6.51;67.12
20983;BME280;10650;51.528;6.748;2023-03-04T06:31:22;102275.75;;;6.50;67.07
20983;BME280;10650;51.528;6.748;2023-03-04T06:33:50;102276.00;;;6.56;67.47
20983;BME280;10650;51.528;6.748;2023-03-04T06:36:18;102274.44;;;6.65;67.16
20983;BME280;10650;51.528;6.748;2023-03-04T06:38:46;102282.50;;;6.66;66.95
20983;BME280;10650;51.528;6.748;2023-03-04T06:41:16;102285.28;;;6.71;66.89
20983;BME280;10650;51.528;6.748;2023-03-04T06:43:44;102294.25;;;6.74;67.14
20983;BME280;10650;51.528;6.748;2023-03-04T06:46:12;102285.28;;;6.71;67.14
20983;BME280;10650;51.528;6.748;2023-03-04T06:48:40;102288.59;;;6.64;67.30
20983;BME280;10650;51.528;6.748;2023-03-04T06:51:08;102296.53;;;6.62;67.13
20983;BME280;10650;51.528;6.748;2023-03-04T06:53:37;102298.31;;;6.63;68.05
20983;BME280;10650;51.528;6.748;2023-03-04T06:56:07;102294.66;;;6.60;67.71
20983;BME280;10650;51.528;6.748;2023-03-04T06:58:47;102303.47;;;6.58;68.16
20983;BME280;10650;51.528;6.748;2023-03-04T07:01:18;102300.97;;;6.63;68.28
20983;BME280;10650;51.528;6.748;2023-03-04T07:03:46;102298.47;;;6.68;68.45
20983;BME280;10650;51.528;6.748;2023-03-04T07:06:17;102303.63;;;6.63;68.85
20983;BME280;10650;51.528;6.748;2023-03-04T07:08:46;102299.94;;;6.58;69.71
20983;BME280;10650;51.528;6.748;2023-03-04T07:11:14;102301.56;;;6.54;69.80
20983;BME280;10650;51.528;6.748;2023-03-04T07:13:44;102300.03;;;6.61;70.47
20983;BME280;10650;51.528;6.748;2023-03-04T07:16:14;102309.09;;;6.68;70.49
20983;BME280;10650;51.528;6.748;2023-03-04T07:18:43;102303.84;;;6.69;70.16
20983;BME280;10650;51.528;6.748;2023-03-04T07:21:11;102307.25;;;6.65;70.52
20983;BME280;10650;51.528;6.748;2023-03-04T07:23:42;102306.28;;;6.63;70.63
20983;BME280;10650;51.528;6.748;2023-03-04T07:26:10;102317.16;;;6.71;70.69
20983;BME280;10650;51.528;6.748;2023-03-04T07:28:38;102309.25;;;6.72;71.08
20983;BME280;10650;51.528;6.748;2023-03-04T07:31:11;102306.78;;;6.79;71.33
20983;BME280;10650;51.528;6.748;2023-03-04T07:33:40;102299.06;;;6.86;71.40
20983;BME280;10650;51.528;6.748;2023-03-04T07:36:08;102306.06;;;6.84;70.94
20983;BME280;10650;51.528;6.748;2023-03-04T07:38:36;102300.84;;;6.87;70.83
20983;BME280;10650;51.528;6.748;2023-03-04T07:41:07;102302.94;;;6.98;71.22
20983;BME280;10650;51.528;6.748;2023-03-04T07:43:35;102308.38;;;7.01;71.05
20983;BME280;10650;51.528;6.748;2023-03-04T07:46:06;102306.00;;;7.12;71.81
20983;BME280;10650;51.528;6.748;2023-03-04T07:48:36;102313.19;;;7.14;70.95
20983;BME280;10650;51.528;6.748;2023-03-04T07:51:06;102316.72;;;7.15;71.61
20983;BME280;10650;51.528;6.748;2023-03-04T07:53:35;102304.59;;;7.23;71.75
20983;BME280;10650;51.528;6.748;2023-03-04T07:56:09;102308.97;;;7.21;71.20
20983;BME280;10650;51.528;6.748;2023-03-04T07:58:38;102309.13;;;7.27;71.46
20983;BME280;10650;51.528;6.748;2023-03-04T08:01:10;102313.59;;;7.28;72.39
20983;BME280;10650;51.528;6.748;2023-03-04T08:03:40;102315.50;;;7.32;72.35
20983;BME280;10650;51.528;6.748;2023-03-04T08:06:10;102314.72;;;7.36;72.32
20983;BME280;10650;51.528;6.748;2023-03-04T08:08:38;102310.47;;;7.43;72.27
20983;BME280;10650;51.528;6.748;2023-03-04T08:11:08;102319.59;;;7.51;71.84
20983;BME280;10650;51.528;6.748;2023-03-04T08:13:37;102320.56;;;7.55;71.72
20983;BME280;10650;51.528;6.748;2023-03-04T08:16:06;102326.09;;;7.61;71.64
20983;BME280;10650;51.528;6.748;2023-03-04T08:18:34;102316.22;;;7.57;71.35
20983;BME280;10650;51.528;6.748;2023-03-04T08:21:07;102326.03;;;7.59;71.43
20983;BME280;10650;51.528;6.748;2023-03-04T08:23:38;102322.69;;;7.67;72.02
20983;BME280;10650;51.528;6.748;2023-03-04T08:26:09;102317.56;;;7.74;71.95
20983;BME280;10650;51.528;6.748;2023-03-04T08:28:39;102324.78;;;7.78;71.02
20983;BME280;10650;51.528;6.748;2023-03-04T08:31:07;102332.22;;;7.58;70.89
20983;BME280;10650;51.528;6.748;2023-03-04T08:33:35;102321.50;;;7.55;71.65
20983;BME280;10650;51.528;6.748;2023-03-04T08:36:05;102327.50;;;7.48;72.21
20983;BME280;10650;51.528;6.748;2023-03-04T08:38:33;102327.66;;;7.54;72.66
20983;BME280;10650;51.528;6.748;2023-03-04T08:41:02;102321.63;;;7.60;72.37
20983;BME280;10650;51.528;6.748;2023-03-04T08:43:31;102323.91;;;7.48;72.24
20983;BME280;10650;51.528;6.748;2023-03-04T08:45:59;102321.41;;;7.52;72.37
20983;BME280;10650;51.528;6.748;2023-03-04T08:48:27;102326.84;;;7.57;72.22
20983;BME280;10650;51.528;6.748;2023-03-04T08:50:55;102321.66;;;7.61;71.36
20983;BME280;10650;51.528;6.748;2023-03-04T08:53:24;102317.91;;;7.55;71.46
20983;BME280;10650;51.528;6.748;2023-03-04T08:55:52;102317.47;;;7.70;71.52
20983;BME280;10650;51.528;6.748;2023-03-04T08:58:20;102313.47;;;7.86;71.37
20983;BME280;10650;51.528;6.748;2023-03-04T09:00:48;102310.88;;;7.89;71.03
20983;BME280;10650;51.528;6.748;2023-03-04T09:03:18;102311.19;;;8.00;71.03
20983;BME280;10650;51.528;6.748;2023-03-04T09:05:47;102314.19;;;8.13;70.47
20983;BME280;10650;51.528;6.748;2023-03-04T09:08:16;102316.28;;;8.25;69.81
20983;BME280;10650;51.528;6.748;2023-03-04T09:10:46;102314.91;;;8.41;69.38
20983;BME280;10650;51.528;6.748;2023-03-04T09:13:14;102319.06;;;8.30;69.01
20983;BME280;10650;51.528;6.748;2023-03-04T09:15:43;102307.56;;;8.31;69.17
20983;BME280;10650;51.528;6.748;2023-03-04T09:18:11;102318.22;;;8.31;69.36
20983;BME280;10650;51.528;6.748;2023-03-04T09:20:40;102316.88;;;8.15;69.18
20983;BME280;10650;51.528;6.748;2023-03-04T09:23:07;102308.94;;;7.83;69.75
20983;BME280;10650;51.528;6.748;2023-03-04T09:25:36;102313.56;;;7.90;70.67
20983;BME280;10650;51.528;6.748;2023-03-04T09:28:06;102311.84;;;7.91;70.47
20983;BME280;10650;51.528;6.748;2023-03-04T09:30:34;102311.00;;;7.93;70.60
20983;BME280;10650;51.528;6.748;2023-03-04T09:33:02;102301.50;;;8.03;70.49
20983;BME280;10650;51.528;6.748;2023-03-04T09:35:30;102309.63;;;8.09;70.41
20983;BME280;10650;51.528;6.748;2023-03-04T09:37:58;102306.41;;;8.21;70.05
20983;BME280;10650;51.528;6.748;2023-03-04T09:40:29;102308.38;;;8.28;69.81
20983;BME280;10650;51.528;6.748;2023-03-04T09:43:01;102309.72;;;8.46;69.43
20983;BME280;10650;51.528;6.748;2023-03-04T09:45:35;102304.69;;;8.57;68.88
20983;BME280;10650;51.528;6.748;2023-03-04T09:48:05;102311.88;;;8.62;68.87
20983;BME280;10650;51.528;6.748;2023-03-04T09:50:37;102310.22;;;8.66;68.82
20983;BME280;10650;51.528;6.748;2023-03-04T09:53:18;102305.69;;;8.63;68.70
20983;BME280;10650;51.528;6.748;2023-03-04T09:55:49;102291.69;;;8.72;67.99
20983;BME280;10650;51.528;6.748;2023-03-04T09:58:27;102298.50;;;8.59;68.59
20983;BME280;10650;51.528;6.748;2023-03-04T10:01:02;102296.00;;;8.65;68.72
20983;BME280;10650;51.528;6.748;2023-03-04T10:03:43;102292.47;;;8.68;68.78
20983;BME280;10650;51.528;6.748;2023-03-04T10:06:16;102289.59;;;8.57;68.65
20983;BME280;10650;51.528;6.748;2023-03-04T10:08:49;102291.59;;;8.68;68.91
20983;BME280;10650;51.528;6.748;2023-03-04T10:11:23;102284.81;;;8.82;69.14
20983;BME280;10650;51.528;6.748;2023-03-04T10:14:15;102283.19;;;8.89;68.54
20983;BME280;10650;51.528;6.748;2023-03-04T10:16:50;102287.78;;;8.94;68.81
20983;BME280;10650;51.528;6.748;2023-03-04T10:19:29;102288.53;;;8.89;68.67
20983;BME280;10650;51.528;6.748;2023-03-04T10:21:58;102277.47;;;8.72;68.70
20983;BME280;10650;51.528;6.748;2023-03-04T10:24:27;102283.66;;;8.71;69.17
20983;BME280;10650;51.528;6.748;2023-03-04T10:27:00;102285.03;;;8.53;68.88
20983;BME280;10650;51.528;6.748;2023-03-04T10:29:31;102286.09;;;8.60;68.56
20983;BME280;10650;51.528;6.748;2023-03-04T10:32:01;102284.97;;;8.50;69.09
20983;BME280;10650;51.528;6.748;2023-03-04T10:34:29;102281.47;;;8.53;69.78
20983;BME280;10650;51.528;6.748;2023-03-04T10:36:59;102273.59;;;8.57;69.81
20983;BME280;10650;51.528;6.748;2023-03-04T10:39:29;102289.03;;;8.72;69.81
20983;BME280;10650;51.528;6.748;2023-03-04T10:42:00;102281.31;;;8.85;69.67
20983;BME280;10650;51.528;6.748;2023-03-04T10:44:29;102283.19;;;8.89;69.16
20983;BME280;10650;51.528;6.748;2023-03-04T10:46:57;102276.38;;;9.02;68.85
20983;BME280;10650;51.528;6.748;2023-03-04T10:49:27;102280.16;;;9.11;67.62
20983;BME280;10650;51.528;6.748;2023-03-04T10:52:01;102273.91;;;9.11;67.96
20983;BME280;10650;51.528;6.748;2023-03-04T10:54:32;102280.34;;;9.21;67.96
20983;BME280;10650;51.528;6.748;2023-03-04T10:57:04;102269.38;;;9.08;67.16
20983;BME280;10650;51.528;6.748;2023-03-04T10:59:42;102266.09;;;9.18;67.66
20983;BME280;10650;51.528;6.748;2023-03-04T11:02:29;102264.28;;;9.17;67.28
20983;BME280;10650;51.528;6.748;2023-03-04T11:05:16;102265.06;;;9.13;67.24
20983;BME280;10650;51.528;6.748;2023-03-04T11:07:47;102263.53;;;9.25;66.83
20983;BME280;10650;51.528;6.748;2023-03-04T11:10:24;102259.31;;;9.36;66.88
20983;BME280;10650;51.528;6.748;2023-03-04T11:12:58;102246.06;;;9.41;66.30
20983;BME280;10650;51.528;6.748;2023-03-04T11:15:47;102243.47;;;9.44;66.32
20983;BME280;10650;51.528;6.748;2023-03-04T11:18:18;102247.81;;;9.39;66.21
20983;BME280;10650;51.528;6.748;2023-03-04T11:20:49;102246.84;;;9.35;66.34
20983;BME280;10650;51.528;6.748;2023-03-04T11:23:25;102246.66;;;9.24;66.51
20983;BME280;10650;51.528;6.748;2023-03-04T11:26:00;102249.22;;;9.21;66.97
20983;BME280;10650;51.528;6.748;2023-03-04T11:28:36;102244.91;;;9.26;66.95
20983;BME280;10650;51.528;6.748;2023-03-04T11:31:11;102237.88;;;9.30;67.04
20983;BME280;10650;51.528;6.748;2023-03-04T11:33:42;102244.75;;;9.18;66.58
20983;BME280;10650;51.528;6.748;2023-03-04T11:36:24;102238.38;;;9.12;67.17
20983;BME280;10650;51.528;6.748;2023-03-04T11:38:56;102241.72;;;9.02;67.24
20983;BME280;10650;51.528;6.748;2023-03-04T11:41:28;102231.94;;;9.02;68.20
20983;BME280;10650;51.528;6.748;2023-03-04T11:43:58;102245.22;;;8.99;69.08
20983;BME280;10650;51.528;6.748;2023-03-04T11:49:42;102225.72;;;9.02;70.50
20983;BME280;10650;51.528;6.748;2023-03-04T11:52:21;102224.31;;;9.19;70.07
20983;BME280;10650;51.528;6.748;2023-03-04T11:55:04;102215.59;;;9.28;69.23
20983;BME280;10650;51.528;6.748;2023-03-04T11:57:46;102221.88;;;9.30;69.52
20983;BME280;10650;51.528;6.748;2023-03-04T12:00:32;102203.44;;;9.44;69.62
20983;BME280;10650;51.528;6.748;2023-03-04T12:03:29;102201.97;;;9.60;68.98
20983;BME280;10650;51.528;6.748;2023-03-04T12:06:10;102211.78;;;9.61;68.49
20983;BME280;10650;51.528;6.748;2023-03-04T12:08:50;102204.38;;;9.46;69.20
20983;BME280;10650;51.528;6.748;2023-03-04T12:11:25;102202.25;;;9.28;69.92
20983;BME280;10650;51.528;6.748;2023-03-04T12:14:20;102193.34;;;9.26;71.50
20983;BME280;10650;51.528;6.748;2023-03-04T12:17:22;102191.59;;;9.28;72.31
20983;BME280;10650;51.528;6.748;2023-03-04T12:20:15;102192.56;;;9.31;72.45
20983;BME280;10650;51.528;6.748;2023-03-04T12:22:50;102188.00;;;9.26;72.50
20983;BME280;10650;51.528;6.748;2023-03-04T12:25:33;102191.53;;;9.25;72.67
20983;BME280;10650;51.528;6.748;2023-03-04T12:28:21;102193.13;;;9.16;73.48
20983;BME280;10650;51.528;6.748;2023-03-04T12:31:02;102193.84;;;9.08;74.03
20983;BME280;10650;51.528;6.748;2023-03-04T12:33:41;102186.63;;;9.02;74.83
20983;BME280;10650;51.528;6.748;2023-03-04T12:36:19;102182.94;;;8.95;76.21
20983;BME280;10650;51.528;6.748;2023-03-04T12:39:16;102181.59;;;8.73;76.57
20983;BME280;10650;51.528;6.748;2023-03-04T12:41:51;102173.59;;;8.73;77.18
20983;BME280;10650;51.528;6.748;2023-03-04T12:44:23;102170.97;;;8.75;77.70
20983;BME280;10650;51.528;6.748;2023-03-04T12:47:16;102165.13;;;8.93;78.12
20983;BME280;10650;51.528;6.748;2023-03-04T12:49:57;102163.78;;;9.15;78.31
20983;BME280;10650;51.528;6.748;2023-03-04T12:52:43;102155.97;;;9.24;77.66
20983;BME280;10650;51.528;6.748;2023-03-04T12:55:19;102159.50;;;9.23;76.92
20983;BME280;10650;51.528;6.748;2023-03-04T12:57:53;102160.47;;;9.28;76.99
20983;BME280;10650;51.528;6.748;2023-03-04T13:00:27;102156.06;;;9.29;76.50
20983;BME280;10650;51.528;6.748;2023-03-04T13:03:08;102145.50;;;9.35;76.24
20983;BME280;10650;51.528;6.748;2023-03-04T13:05:50;102148.09;;;9.32;75.55
20983;BME280;10650;51.528;6.748;2023-03-04T13:08:28;102148.06;;;9.29;74.98
20983;BME280;10650;51.528;6.748;2023-03-04T13:11:01;102144.53;;;9.30;75.40
20983;BME280;10650;51.528;6.748;2023-03-04T13:13:37;102146.31;;;9.32;74.78
20983;BME280;10650;51.528;6.748;2023-03-04T13:16:26;102148.09;;;9.32;74.68
20983;BME280;10650;51.528;6.748;2023-03-04T13:18:55;102142.78;;;9.33;73.77
20983;BME280;10650;51.528;6.748;2023-03-04T13:21:24;102142.84;;;9.37;73.80
20983;BME280;10650;51.528;6.748;2023-03-04T13:23:54;102140.88;;;9.26;73.68